createdAt,value
2019-05-26T00:01:22.956Z,5.15
2019-05-26T00:03:51.607Z,5.20
2019-05-26T00:06:20.269Z,4.95
2019-05-26T00:08:49.304Z,5.78
2019-05-26T00:11:18.270Z,6.55
2019-05-26T00:13:47.044Z,6.60
2019-05-26T00:16:15.763Z,6.87
2019-05-26T00:18:44.357Z,7.17
2019-05-26T00:21:13.366Z,6.87
2019-05-26T00:23:42.046Z,7.15
2019-05-26T00:26:10.713Z,7.90
2019-05-26T00:28:39.324Z,9.40
2019-05-26T00:31:08.093Z,9.90
2019-05-26T00:33:36.730Z,10.40
2019-05-26T00:36:05.509Z,9.90
2019-05-26T00:38:34.237Z,9.98
2019-05-26T00:41:02.899Z,9.15
2019-05-26T00:43:31.598Z,9.28
2019-05-26T00:46:00.322Z,8.95
2019-05-26T00:48:29.156Z,9.63
2019-05-26T00:50:57.859Z,7.47
2019-05-26T00:53:26.588Z,7.60
2019-05-26T00:55:55.240Z,7.50
2019-05-26T00:58:23.996Z,6.75
2019-05-26T01:00:52.896Z,6.15
2019-05-26T01:03:21.618Z,6.95
2019-05-26T01:05:50.333Z,6.45
2019-05-26T01:08:19.041Z,6.35
2019-05-26T01:10:47.766Z,6.90
2019-05-26T01:13:16.525Z,6.28
2019-05-26T01:15:45.237Z,6.85
2019-05-26T01:18:13.883Z,6.45
2019-05-26T01:20:42.709Z,6.50
2019-05-26T01:23:11.422Z,7.12
2019-05-26T01:25:40.090Z,8.00
2019-05-26T01:28:08.799Z,8.35
2019-05-26T01:30:39.094Z,8.80
2019-05-26T01:33:08.070Z,8.10
2019-05-26T01:35:39.973Z,8.88
2019-05-26T01:38:22.504Z,8.20
2019-05-26T01:40:41.726Z,11.25
2019-05-26T01:43:10.408Z,15.05
2019-05-26T01:45:39.070Z,14.40
2019-05-26T01:48:08.374Z,14.28
2019-05-26T01:50:37.561Z,13.48
2019-05-26T01:53:07.716Z,11.63
2019-05-26T01:55:36.351Z,11.08
2019-05-26T01:58:05.313Z,10.00
2019-05-26T02:00:34.146Z,8.50
2019-05-26T02:03:03.435Z,8.95
2019-05-26T02:05:32.133Z,10.03
2019-05-26T02:08:01.021Z,8.70
2019-05-26T02:10:29.676Z,9.48
2019-05-26T02:12:58.337Z,9.08
2019-05-26T02:15:27.412Z,8.58
2019-05-26T02:17:56.136Z,9.28
2019-05-26T02:20:24.799Z,8.75
2019-05-26T02:22:53.704Z,6.65
2019-05-26T02:25:22.556Z,6.53
2019-05-26T02:27:51.206Z,7.35
2019-05-26T02:30:20.408Z,7.00
2019-05-26T02:32:49.125Z,7.50
2019-05-26T02:35:17.892Z,7.20
2019-05-26T02:37:46.539Z,6.65
2019-05-26T02:40:17.239Z,5.40
2019-05-26T02:42:45.975Z,6.58
2019-05-26T02:45:19.466Z,6.45
2019-05-26T02:47:48.216Z,7.45
2019-05-26T02:50:17.908Z,6.05
2019-05-26T02:52:46.631Z,6.25
2019-05-26T02:55:15.766Z,7.05
2019-05-26T02:57:44.470Z,6.70
2019-05-26T03:00:14.588Z,6.40
2019-05-26T03:02:44.471Z,6.40
2019-05-26T03:05:14.814Z,5.83
2019-05-26T03:07:46.372Z,6.47
2019-05-26T03:10:15.807Z,6.28
2019-05-26T03:12:46.186Z,6.15
2019-05-26T03:15:16.322Z,6.17
2019-05-26T03:17:46.381Z,7.20
2019-05-26T03:20:15.548Z,6.90
2019-05-26T03:22:45.802Z,7.28
2019-05-26T03:25:14.492Z,6.80
2019-05-26T03:27:43.134Z,6.75
2019-05-26T03:30:11.972Z,6.60
2019-05-26T03:32:40.656Z,6.03
2019-05-26T03:35:10.632Z,5.50
2019-05-26T03:37:39.267Z,6.70
2019-05-26T03:40:09.045Z,6.53
2019-05-26T03:42:37.866Z,6.10
2019-05-26T03:45:08.210Z,6.67
2019-05-26T03:47:36.901Z,7.85
2019-05-26T03:50:07.972Z,8.13
2019-05-26T03:52:36.673Z,8.88
2019-05-26T03:55:07.616Z,8.30
2019-05-26T03:57:36.488Z,8.93
2019-05-26T04:00:08.927Z,8.75
2019-05-26T04:02:37.644Z,9.08
2019-05-26T04:05:07.065Z,8.15
2019-05-26T04:07:35.777Z,7.90
2019-05-26T04:10:06.868Z,8.53
2019-05-26T04:12:35.479Z,7.95
2019-05-26T04:15:07.405Z,8.53
2019-05-26T04:17:36.096Z,7.53
2019-05-26T04:20:06.315Z,7.75
2019-05-26T04:22:34.978Z,6.80
2019-05-26T04:25:05.641Z,6.55
2019-05-26T04:27:34.299Z,7.58
2019-05-26T04:30:02.941Z,7.10
2019-05-26T04:32:31.692Z,7.22
2019-05-26T04:35:00.371Z,6.97
2019-05-26T04:37:29.045Z,6.53
2019-05-26T04:39:57.802Z,7.25
2019-05-26T04:42:26.518Z,6.00
2019-05-26T04:44:55.213Z,6.75
2019-05-26T04:47:23.924Z,7.08
2019-05-26T04:49:52.853Z,6.40
2019-05-26T04:52:21.557Z,6.92
2019-05-26T04:54:50.283Z,7.42
2019-05-26T04:57:19.017Z,6.67
2019-05-26T04:59:47.665Z,6.85
2019-05-26T05:02:16.404Z,6.72
2019-05-26T05:04:45.061Z,8.38
2019-05-26T05:07:13.718Z,7.97
2019-05-26T05:09:42.464Z,8.28
2019-05-26T05:12:11.348Z,7.62
2019-05-26T05:14:40.066Z,8.38
2019-05-26T05:17:08.813Z,8.48
2019-05-26T05:19:37.372Z,7.92
2019-05-26T05:22:06.353Z,8.03
2019-05-26T05:24:35.008Z,8.25
2019-05-26T05:27:03.761Z,7.35
2019-05-26T05:29:32.468Z,7.17
2019-05-26T05:32:01.102Z,8.20
2019-05-26T05:34:29.785Z,7.40
2019-05-26T05:36:58.485Z,7.45
2019-05-26T05:39:31.572Z,7.78
2019-05-26T05:42:01.502Z,6.87
2019-05-26T05:44:40.866Z,8.48
2019-05-26T05:47:00.850Z,7.87
2019-05-26T05:49:29.508Z,7.25
2019-05-26T05:51:58.191Z,7.72
2019-05-26T05:54:26.773Z,7.87
2019-05-26T05:56:55.901Z,7.90
2019-05-26T05:59:24.738Z,7.62
2019-05-26T06:01:54.953Z,6.70
2019-05-26T06:04:23.587Z,7.37
2019-05-26T06:06:52.268Z,7.62
2019-05-26T06:09:20.908Z,7.75
2019-05-26T06:11:54.297Z,7.28
2019-05-26T06:14:20.086Z,7.87
2019-05-26T06:16:48.708Z,8.28
2019-05-26T06:19:17.466Z,7.00
2019-05-26T06:21:46.371Z,7.12
2019-05-26T06:24:15.033Z,6.35
2019-05-26T06:26:43.685Z,7.35
2019-05-26T06:29:12.441Z,6.97
2019-05-26T06:31:41.087Z,7.15
2019-05-26T06:34:09.798Z,7.47
2019-05-26T06:36:38.571Z,6.67
2019-05-26T06:39:08.131Z,7.80
2019-05-26T06:41:36.774Z,6.00
2019-05-26T06:44:05.604Z,7.35
2019-05-26T06:46:34.243Z,6.35
2019-05-26T06:49:02.897Z,7.33
2019-05-26T06:51:31.665Z,7.97
2019-05-26T06:54:00.404Z,7.60
2019-05-26T06:56:29.127Z,9.13
2019-05-26T06:58:57.906Z,8.90
2019-05-26T07:01:26.482Z,7.80
2019-05-26T07:03:55.196Z,6.78
2019-05-26T07:06:23.916Z,6.78
2019-05-26T07:08:52.568Z,6.78
2019-05-26T07:11:21.295Z,6.53
2019-05-26T07:13:49.924Z,6.17
2019-05-26T07:16:18.677Z,6.47
2019-05-26T07:18:47.582Z,6.37
2019-05-26T07:21:16.321Z,6.00
2019-05-26T07:23:44.988Z,5.60
2019-05-26T07:26:13.627Z,5.95
2019-05-26T07:28:42.361Z,6.15
2019-05-26T07:31:12.592Z,5.85
2019-05-26T07:33:41.241Z,5.75
2019-05-26T07:36:09.890Z,5.37
2019-05-26T07:38:38.650Z,5.40
2019-05-26T07:41:07.382Z,4.80
2019-05-26T07:43:36.028Z,5.70
2019-05-26T07:46:04.784Z,5.67
2019-05-26T07:48:36.088Z,5.60
2019-05-26T07:51:03.889Z,5.50
2019-05-26T07:53:32.757Z,5.42
2019-05-26T07:56:01.505Z,5.30
2019-05-26T07:58:30.168Z,4.95
2019-05-26T08:00:58.936Z,4.72
2019-05-26T08:03:27.674Z,4.65
2019-05-26T08:05:57.950Z,4.83
2019-05-26T08:08:26.641Z,5.05
2019-05-26T08:10:55.290Z,4.75
2019-05-26T08:13:24.010Z,4.90
2019-05-26T08:15:52.800Z,4.50
2019-05-26T08:18:21.438Z,4.10
2019-05-26T08:20:50.110Z,4.22
2019-05-26T08:23:18.908Z,4.72
2019-05-26T08:25:47.685Z,4.90
2019-05-26T08:28:16.450Z,4.72
2019-05-26T08:30:45.231Z,6.05
2019-05-26T08:33:13.858Z,4.83
2019-05-26T08:35:44.018Z,5.20
2019-05-26T08:38:12.642Z,4.47
2019-05-26T08:40:41.304Z,4.85
2019-05-26T08:43:10.025Z,4.62
2019-05-26T08:45:38.704Z,4.28
2019-05-26T08:48:07.355Z,4.42
2019-05-26T08:50:36.090Z,4.78
2019-05-26T08:53:04.856Z,4.22
2019-05-26T08:55:34.486Z,4.08
2019-05-26T08:58:03.137Z,3.72
2019-05-26T09:00:31.869Z,3.95
2019-05-26T09:03:00.591Z,4.22
2019-05-26T09:05:29.308Z,3.58
2019-05-26T09:07:57.985Z,3.17
2019-05-26T09:10:26.719Z,3.90
2019-05-26T09:13:01.362Z,3.55
2019-05-26T09:15:25.792Z,3.30
2019-05-26T09:17:54.510Z,3.35
2019-05-26T09:20:23.239Z,3.55
2019-05-26T09:22:51.971Z,3.50
2019-05-26T09:25:20.920Z,4.15
2019-05-26T09:27:49.585Z,4.60
2019-05-26T09:30:18.666Z,5.20
2019-05-26T09:32:47.298Z,4.47
2019-05-26T09:35:16.865Z,4.47
2019-05-26T09:37:45.554Z,6.05
2019-05-26T09:40:14.472Z,3.83
2019-05-26T09:42:43.104Z,3.90
2019-05-26T09:45:13.343Z,4.05
2019-05-26T09:47:42.073Z,4.70
2019-05-26T09:50:11.121Z,3.87
2019-05-26T09:52:39.838Z,3.60
2019-05-26T09:55:09.055Z,3.05
2019-05-26T09:57:38.720Z,4.65
2019-05-26T10:00:16.342Z,4.22
2019-05-26T10:02:45.898Z,3.42
2019-05-26T10:05:15.773Z,3.70
2019-05-26T10:07:47.267Z,3.42
2019-05-26T10:10:16.823Z,2.83
2019-05-26T10:12:46.845Z,2.60
2019-05-26T10:15:16.806Z,2.80
2019-05-26T10:17:45.444Z,2.12
2019-05-26T10:20:14.437Z,2.12
2019-05-26T10:22:43.165Z,2.30
2019-05-26T10:25:12.083Z,2.90
2019-05-26T10:27:40.695Z,2.62
2019-05-26T10:30:14.685Z,2.25
2019-05-26T10:32:43.335Z,2.20
2019-05-26T10:35:12.762Z,2.08
2019-05-26T10:37:41.533Z,2.52
2019-05-26T10:40:11.943Z,2.02
2019-05-26T10:42:40.614Z,2.25
2019-05-26T10:45:09.744Z,1.87
2019-05-26T10:47:38.489Z,2.00
2019-05-26T10:50:07.740Z,1.70
2019-05-26T10:52:36.416Z,2.10
2019-05-26T10:55:08.121Z,2.17
2019-05-26T10:57:36.846Z,2.20
2019-05-26T11:00:10.479Z,2.37
2019-05-26T11:02:39.143Z,1.90
2019-05-26T11:05:09.097Z,2.12
2019-05-26T11:07:37.796Z,1.80
2019-05-26T11:10:09.593Z,2.02
2019-05-26T11:12:38.304Z,1.98
2019-05-26T11:15:08.380Z,2.05
2019-05-26T11:17:36.971Z,2.25
2019-05-26T11:20:11.319Z,1.95
2019-05-26T11:22:40.101Z,2.05
2019-05-26T11:25:09.527Z,1.62
2019-05-26T11:27:38.178Z,2.10
2019-05-26T11:30:09.631Z,2.35
2019-05-26T11:32:43.387Z,2.10
2019-05-26T11:35:13.603Z,2.33
2019-05-26T11:37:42.311Z,2.15
2019-05-26T11:40:11.168Z,2.37
2019-05-26T11:42:39.816Z,2.10
2019-05-26T11:45:09.175Z,2.20
2019-05-26T11:47:37.823Z,2.20
2019-05-26T11:50:07.970Z,2.12
2019-05-26T11:52:36.713Z,2.17
2019-05-26T11:55:09.303Z,2.27
2019-05-26T11:57:38.046Z,2.17
2019-05-26T12:00:10.046Z,2.35
2019-05-26T12:02:39.345Z,2.58
2019-05-26T12:05:09.629Z,2.08
2019-05-26T12:07:38.465Z,1.95
2019-05-26T12:10:14.169Z,1.98
2019-05-26T12:12:42.866Z,2.20
2019-05-26T12:15:13.387Z,2.60
2019-05-26T12:17:42.083Z,2.10
2019-05-26T12:20:11.043Z,2.08
2019-05-26T12:22:39.680Z,2.40
2019-05-26T12:25:09.114Z,2.35
2019-05-26T12:27:39.331Z,2.37
2019-05-26T12:30:09.551Z,2.10
2019-05-26T12:32:38.251Z,2.47
2019-05-26T12:35:08.488Z,2.50
2019-05-26T12:37:37.173Z,2.37
2019-05-26T12:40:07.613Z,2.17
2019-05-26T12:42:36.353Z,1.87
2019-05-26T12:45:09.410Z,2.05
2019-05-26T12:47:38.064Z,2.20
2019-05-26T12:50:08.819Z,2.42
2019-05-26T12:52:37.812Z,2.62
2019-05-26T12:55:09.444Z,2.40
2019-05-26T12:57:37.708Z,2.62
2019-05-26T13:00:08.371Z,2.40
2019-05-26T13:02:37.100Z,2.40
2019-05-26T13:05:07.329Z,2.27
2019-05-26T13:07:36.200Z,2.20
2019-05-26T13:10:06.799Z,2.33
2019-05-26T13:12:35.468Z,2.10
2019-05-26T13:15:09.453Z,2.55
2019-05-26T13:17:38.161Z,2.10
2019-05-26T13:20:08.330Z,2.27
2019-05-26T13:22:37.458Z,2.20
2019-05-26T13:25:07.943Z,2.30
2019-05-26T13:27:36.705Z,2.62
2019-05-26T13:30:10.307Z,2.45
2019-05-26T13:32:38.965Z,2.40
2019-05-26T13:35:11.428Z,2.22
2019-05-26T13:37:40.084Z,2.80
2019-05-26T13:40:09.409Z,2.20
2019-05-26T13:42:38.068Z,2.37
2019-05-26T13:45:21.703Z,3.27
2019-05-26T13:47:39.976Z,2.20
2019-05-26T13:50:10.233Z,2.17
2019-05-26T13:52:39.219Z,2.10
2019-05-26T13:55:10.563Z,2.12
2019-05-26T13:57:39.451Z,2.17
2019-05-26T14:00:10.920Z,2.30
2019-05-26T14:02:40.050Z,2.77
2019-05-26T14:05:09.284Z,2.40
2019-05-26T14:07:37.978Z,2.22
2019-05-26T14:10:08.792Z,2.65
2019-05-26T14:12:37.481Z,3.08
2019-05-26T14:15:10.936Z,2.27
2019-05-26T14:17:40.700Z,2.25
2019-05-26T14:20:11.303Z,2.60
2019-05-26T14:22:39.955Z,2.08
2019-05-26T14:25:09.131Z,1.95
2019-05-26T14:27:37.857Z,2.20
2019-05-26T14:30:07.399Z,2.10
2019-05-26T14:32:37.294Z,2.30
2019-05-26T14:35:15.058Z,2.65
2019-05-26T14:37:43.683Z,2.00
2019-05-26T14:40:12.851Z,2.20
2019-05-26T14:42:41.511Z,2.20
2019-05-26T14:45:10.564Z,2.20
2019-05-26T14:47:39.298Z,2.20
2019-05-26T14:50:09.071Z,2.70
2019-05-26T14:52:37.795Z,2.42
2019-05-26T14:55:07.172Z,2.35
2019-05-26T14:57:35.812Z,2.60
2019-05-26T15:00:06.801Z,2.08
2019-05-26T15:02:35.527Z,2.30
2019-05-26T15:05:05.237Z,2.27
2019-05-26T15:07:33.947Z,1.98
2019-05-26T15:10:02.591Z,2.60
2019-05-26T15:12:31.279Z,2.12
2019-05-26T15:15:00.033Z,2.22
2019-05-26T15:17:28.742Z,2.10
2019-05-26T15:19:57.497Z,1.90
2019-05-26T15:22:26.206Z,2.22
2019-05-26T15:24:54.848Z,2.10
2019-05-26T15:27:23.573Z,1.95
2019-05-26T15:29:52.361Z,2.45
2019-05-26T15:32:20.949Z,2.35
2019-05-26T15:34:49.605Z,2.30
2019-05-26T15:37:18.362Z,2.30
2019-05-26T15:39:47.069Z,2.62
2019-05-26T15:42:15.665Z,2.30
2019-05-26T15:44:44.293Z,2.40
2019-05-26T15:47:13.011Z,2.45
2019-05-26T15:49:41.660Z,2.70
2019-05-26T15:52:10.344Z,2.30
2019-05-26T15:54:39.055Z,2.40
2019-05-26T15:57:07.700Z,2.52
2019-05-26T15:59:36.545Z,2.70
2019-05-26T16:02:05.576Z,2.20
2019-05-26T16:04:34.299Z,2.20
2019-05-26T16:07:03.011Z,2.08
2019-05-26T16:09:31.573Z,2.65
2019-05-26T16:12:00.462Z,2.35
2019-05-26T16:14:29.222Z,2.30
2019-05-26T16:16:57.878Z,2.50
2019-05-26T16:19:26.543Z,2.33
2019-05-26T16:21:55.304Z,2.35
2019-05-26T16:24:23.955Z,2.62
2019-05-26T16:26:52.615Z,2.50
2019-05-26T16:29:21.377Z,2.77
2019-05-26T16:31:50.098Z,2.42
2019-05-26T16:34:18.847Z,2.42
2019-05-26T16:36:47.542Z,2.50
2019-05-26T16:39:16.268Z,2.83
2019-05-26T16:41:44.934Z,2.42
2019-05-26T16:44:13.654Z,2.60
2019-05-26T16:46:55.472Z,2.83
2019-05-26T16:49:12.762Z,2.50
2019-05-26T16:51:41.548Z,3.45
2019-05-26T16:54:10.273Z,2.85
2019-05-26T16:56:38.911Z,2.67
2019-05-26T16:59:07.748Z,2.90
2019-05-26T17:01:36.627Z,2.65
2019-05-26T17:04:05.277Z,2.65
2019-05-26T17:06:33.953Z,2.75
2019-05-26T17:09:02.630Z,2.80
2019-05-26T17:11:31.449Z,3.25
2019-05-26T17:14:00.096Z,3.15
2019-05-26T17:16:28.806Z,4.03
2019-05-26T17:18:57.453Z,3.02
2019-05-26T17:21:26.199Z,4.28
2019-05-26T17:23:54.970Z,4.55
2019-05-26T17:26:23.808Z,3.50
2019-05-26T17:28:52.570Z,3.50
2019-05-26T17:31:21.276Z,3.35
2019-05-26T17:33:49.999Z,3.12
2019-05-26T17:36:18.670Z,2.87
2019-05-26T17:38:47.351Z,3.05
2019-05-26T17:41:16.354Z,3.20
2019-05-26T17:43:45.180Z,2.60
2019-05-26T17:46:15.221Z,3.15
2019-05-26T17:48:44.156Z,2.72
2019-05-26T17:51:12.932Z,2.90
2019-05-26T17:53:41.555Z,2.72
2019-05-26T17:56:10.325Z,2.87
2019-05-26T17:58:38.961Z,3.00
2019-05-26T18:01:07.704Z,3.47
2019-05-26T18:03:36.422Z,3.90
2019-05-26T18:06:05.232Z,3.75
2019-05-26T18:08:36.241Z,3.77
2019-05-26T18:11:04.428Z,3.35
2019-05-26T18:13:33.209Z,3.20
2019-05-26T18:16:01.948Z,2.72
2019-05-26T18:18:30.755Z,3.47
2019-05-26T18:20:59.378Z,3.30
2019-05-26T18:23:28.066Z,2.83
2019-05-26T18:25:56.776Z,3.08
2019-05-26T18:28:25.500Z,2.70
2019-05-26T18:30:54.251Z,3.00
2019-05-26T18:33:23.064Z,3.00
2019-05-26T18:35:51.703Z,3.47
2019-05-26T18:38:20.438Z,3.70
2019-05-26T18:40:49.241Z,3.40
2019-05-26T18:43:17.924Z,3.50
2019-05-26T18:45:46.736Z,3.27
2019-05-26T18:48:15.417Z,3.30
2019-05-26T18:50:44.318Z,3.37
2019-05-26T18:53:13.280Z,3.35
2019-05-26T18:55:41.943Z,3.33
2019-05-26T18:58:10.674Z,3.30
2019-05-26T19:00:39.465Z,3.30
2019-05-26T19:03:08.138Z,3.08
2019-05-26T19:05:38.534Z,3.42
2019-05-26T19:08:07.375Z,2.77
2019-05-26T19:10:36.055Z,3.80
2019-05-26T19:13:04.815Z,2.72
2019-05-26T19:15:33.518Z,3.55
2019-05-26T19:18:16.716Z,3.47
2019-05-26T19:20:32.680Z,3.37
2019-05-26T19:23:01.586Z,3.60
2019-05-26T19:25:30.335Z,3.10
2019-05-26T19:27:58.902Z,3.62
2019-05-26T19:30:27.653Z,3.77
2019-05-26T19:32:56.410Z,3.45
2019-05-26T19:35:25.129Z,3.35
2019-05-26T19:37:53.805Z,3.83
2019-05-26T19:40:22.571Z,3.90
2019-05-26T19:42:51.478Z,3.30
2019-05-26T19:45:20.202Z,3.77
2019-05-26T19:47:48.881Z,3.30
2019-05-26T19:50:17.602Z,3.40
2019-05-26T19:52:49.717Z,3.62
2019-05-26T19:55:16.868Z,3.35
2019-05-26T19:57:48.493Z,3.40
2019-05-26T20:00:18.491Z,3.40
2019-05-26T20:02:47.271Z,3.30
2019-05-26T20:05:16.206Z,3.50
2019-05-26T20:07:44.849Z,3.62
2019-05-26T20:10:13.952Z,3.20
2019-05-26T20:12:42.656Z,3.42
2019-05-26T20:15:11.962Z,3.83
2019-05-26T20:17:40.738Z,3.85
2019-05-26T20:20:10.499Z,3.25
2019-05-26T20:22:39.250Z,3.62
2019-05-26T20:25:09.272Z,3.50
2019-05-26T20:27:37.940Z,3.62
2019-05-26T20:30:08.570Z,3.65
2019-05-26T20:32:37.357Z,2.90
2019-05-26T20:35:07.577Z,3.98
2019-05-26T20:37:36.249Z,3.47
2019-05-26T20:40:09.186Z,3.87
2019-05-26T20:42:38.079Z,4.25
2019-05-26T20:45:10.128Z,3.87
2019-05-26T20:47:38.834Z,3.20
2019-05-26T20:50:08.452Z,3.65
2019-05-26T20:52:37.460Z,3.70
2019-05-26T20:55:07.071Z,3.92
2019-05-26T20:57:35.712Z,3.58
2019-05-26T21:00:07.509Z,3.72
2019-05-26T21:02:36.379Z,3.75
2019-05-26T21:05:08.955Z,3.58
2019-05-26T21:07:37.626Z,3.70
2019-05-26T21:10:07.077Z,4.10
2019-05-26T21:12:35.959Z,3.72
2019-05-26T21:15:05.596Z,4.30
2019-05-26T21:17:34.362Z,3.90
2019-05-26T21:20:03.400Z,4.12
2019-05-26T21:22:32.129Z,4.30
2019-05-26T21:25:00.911Z,4.62
2019-05-26T21:27:34.538Z,4.53
2019-05-26T21:30:04.191Z,4.22
2019-05-26T21:32:32.888Z,4.37
2019-05-26T21:35:01.629Z,4.22
2019-05-26T21:37:30.343Z,4.10
2019-05-26T21:39:58.945Z,4.30
2019-05-26T21:42:27.725Z,3.75
2019-05-26T21:44:56.437Z,4.17
2019-05-26T21:47:25.127Z,3.98
2019-05-26T21:49:53.855Z,4.05
2019-05-26T21:52:22.837Z,4.30
2019-05-26T21:54:51.526Z,4.05
2019-05-26T21:57:20.190Z,4.10
2019-05-26T21:59:48.910Z,3.85
2019-05-26T22:02:18.169Z,3.75
2019-05-26T22:04:46.817Z,4.30
2019-05-26T22:07:15.482Z,4.37
2019-05-26T22:09:44.135Z,4.72
2019-05-26T22:12:12.858Z,4.45
2019-05-26T22:14:41.459Z,3.98
2019-05-26T22:17:10.106Z,4.10
2019-05-26T22:19:38.803Z,4.30
2019-05-26T22:22:07.458Z,4.28
2019-05-26T22:24:36.229Z,4.47
2019-05-26T22:27:05.056Z,4.20
2019-05-26T22:29:33.619Z,4.25
2019-05-26T22:32:02.287Z,4.12
2019-05-26T22:34:31.044Z,4.50
2019-05-26T22:36:59.747Z,4.62
2019-05-26T22:39:28.539Z,3.80
2019-05-26T22:41:57.366Z,4.67
2019-05-26T22:44:26.210Z,4.45
2019-05-26T22:46:54.944Z,4.87
2019-05-26T22:49:23.818Z,6.30
2019-05-26T22:51:52.707Z,6.67
2019-05-26T22:54:21.543Z,5.97
2019-05-26T22:56:50.273Z,5.65
2019-05-26T22:59:18.848Z,5.50
2019-05-26T23:01:47.800Z,4.80
2019-05-26T23:04:16.441Z,4.83
2019-05-26T23:06:45.078Z,4.87
2019-05-26T23:09:13.941Z,4.58
2019-05-26T23:11:42.664Z,4.30
2019-05-26T23:14:11.307Z,4.37
2019-05-26T23:16:39.999Z,4.87
2019-05-26T23:19:18.924Z,4.25
2019-05-26T23:21:39.155Z,4.15
2019-05-26T23:24:07.851Z,4.22
2019-05-26T23:26:36.485Z,3.80
2019-05-26T23:29:05.381Z,3.87
2019-05-26T23:31:34.096Z,3.87
2019-05-26T23:34:02.739Z,4.70
2019-05-26T23:36:31.384Z,4.60
2019-05-26T23:39:00.064Z,3.62
2019-05-26T23:41:28.846Z,3.83
2019-05-26T23:43:57.405Z,4.37
2019-05-26T23:46:27.710Z,3.87
2019-05-26T23:48:56.280Z,3.60
2019-05-26T23:51:25.320Z,3.98
2019-05-26T23:53:54.044Z,3.70
2019-05-26T23:56:23.026Z,4.22
2019-05-26T23:58:51.490Z,4.17
